createdAt,value
2017-12-17T00:00:05.584Z,27.13
2017-12-17T00:02:33.348Z,27.50
2017-12-17T00:05:01.154Z,27.37
2017-12-17T00:07:29.001Z,24.77
2017-12-17T00:09:56.808Z,26.90
2017-12-17T00:12:25.305Z,23.97
2017-12-17T00:14:53.203Z,24.50
2017-12-17T00:17:20.982Z,23.53
2017-12-17T00:19:49.069Z,23.23
2017-12-17T00:22:16.767Z,25.90
2017-12-17T00:24:44.552Z,28.50
2017-12-17T00:27:12.248Z,30.10
2017-12-17T00:29:39.954Z,27.83
2017-12-17T00:32:07.849Z,26.17
2017-12-17T00:34:35.915Z,28.10
2017-12-17T00:37:03.596Z,25.40
2017-12-17T00:39:31.253Z,26.87
2017-12-17T00:41:58.963Z,27.77
2017-12-17T00:44:26.635Z,27.30
2017-12-17T00:46:54.287Z,32.47
2017-12-17T00:49:22.013Z,29.27
2017-12-17T00:51:49.649Z,29.63
2017-12-17T00:54:17.303Z,29.77
2017-12-17T00:56:45.008Z,26.17
2017-12-17T00:59:13.475Z,29.13
2017-12-17T01:01:41.160Z,30.73
2017-12-17T01:04:09.946Z,26.50
2017-12-17T01:06:38.940Z,31.10
2017-12-17T01:09:07.692Z,32.20
2017-12-17T01:11:35.396Z,33.53
2017-12-17T01:14:03.045Z,29.70
2017-12-17T01:16:31.480Z,31.87
2017-12-17T01:18:59.187Z,32.50
2017-12-17T01:21:27.622Z,38.20
2017-12-17T01:23:55.285Z,34.07
2017-12-17T01:26:22.998Z,35.33
2017-12-17T01:28:50.684Z,38.07
2017-12-17T01:31:18.289Z,38.10
2017-12-17T01:33:46.763Z,35.97
2017-12-17T01:36:14.440Z,34.60
2017-12-17T01:38:43.056Z,36.27
2017-12-17T01:41:11.692Z,38.73
2017-12-17T01:43:39.408Z,30.43
2017-12-17T01:46:07.152Z,35.10
2017-12-17T01:48:34.999Z,30.73
2017-12-17T01:51:03.451Z,30.17
2017-12-17T01:53:31.147Z,28.33
2017-12-17T01:55:58.959Z,32.33
2017-12-17T01:58:26.699Z,29.27
2017-12-17T02:00:55.135Z,28.30
2017-12-17T02:03:22.844Z,28.60
2017-12-17T02:05:50.521Z,26.40
2017-12-17T02:08:18.223Z,30.37
2017-12-17T02:10:46.855Z,28.93
2017-12-17T02:13:14.553Z,26.07
2017-12-17T02:15:42.303Z,29.97
2017-12-17T02:18:10.060Z,27.10
2017-12-17T02:20:38.448Z,27.23
2017-12-17T02:23:07.143Z,29.50
2017-12-17T02:25:36.314Z,28.87
2017-12-17T02:28:04.529Z,27.33
2017-12-17T02:30:32.847Z,30.90
2017-12-17T02:33:00.634Z,26.43
2017-12-17T02:35:28.330Z,32.87
2017-12-17T02:37:56.084Z,31.60
2017-12-17T02:40:24.603Z,32.60
2017-12-17T02:42:52.387Z,29.97
2017-12-17T02:45:20.095Z,29.83
2017-12-17T02:47:47.837Z,26.50
2017-12-17T02:50:16.319Z,28.00
2017-12-17T02:52:44.039Z,26.57
2017-12-17T02:55:11.870Z,27.27
2017-12-17T02:57:39.571Z,26.43
2017-12-17T03:00:07.295Z,26.07
2017-12-17T03:02:35.050Z,24.27
2017-12-17T03:05:02.750Z,27.07
2017-12-17T03:07:30.437Z,20.83
2017-12-17T03:09:58.290Z,28.63
2017-12-17T03:12:25.999Z,21.63
2017-12-17T03:14:53.766Z,29.03
2017-12-17T03:17:21.511Z,26.63
2017-12-17T03:19:49.951Z,29.80
2017-12-17T03:22:17.650Z,26.07
2017-12-17T03:24:46.244Z,24.60
2017-12-17T03:27:13.943Z,25.57
2017-12-17T03:29:41.633Z,22.10
2017-12-17T03:32:09.394Z,26.50
2017-12-17T03:34:37.134Z,23.93
2017-12-17T03:37:04.810Z,23.43
2017-12-17T03:39:32.545Z,21.83
2017-12-17T03:42:01.167Z,23.60
2017-12-17T03:44:28.846Z,20.87
2017-12-17T03:46:57.388Z,23.93
2017-12-17T03:49:25.080Z,22.40
2017-12-17T03:51:53.525Z,27.60
2017-12-17T03:54:21.342Z,23.40
2017-12-17T03:56:49.064Z,22.10
2017-12-17T03:59:16.760Z,21.00
2017-12-17T04:01:44.601Z,22.87
2017-12-17T04:04:12.302Z,28.50
2017-12-17T04:06:39.995Z,22.13
2017-12-17T04:09:07.726Z,22.23
2017-12-17T04:11:35.524Z,23.20
2017-12-17T04:14:03.218Z,20.07
2017-12-17T04:16:31.814Z,20.33
2017-12-17T04:18:59.499Z,22.80
2017-12-17T04:21:27.184Z,29.63
2017-12-17T04:23:54.908Z,21.73
2017-12-17T04:26:22.602Z,23.27
2017-12-17T04:28:50.285Z,22.77
2017-12-17T04:31:18.229Z,25.03
2017-12-17T04:33:45.928Z,26.37
2017-12-17T04:36:14.403Z,27.43
2017-12-17T04:38:42.231Z,25.67
2017-12-17T04:41:09.928Z,25.87
2017-12-17T04:43:37.591Z,24.80
2017-12-17T04:46:06.119Z,23.70
2017-12-17T04:48:33.909Z,21.63
2017-12-17T04:51:01.593Z,30.27
2017-12-17T04:53:29.376Z,29.73
2017-12-17T04:55:57.820Z,27.23
2017-12-17T04:58:25.498Z,27.33
2017-12-17T05:00:54.078Z,26.10
2017-12-17T05:03:21.764Z,28.03
2017-12-17T05:05:49.469Z,25.47
2017-12-17T05:08:17.264Z,21.53
2017-12-17T05:10:45.722Z,26.50
2017-12-17T05:13:13.494Z,23.30
2017-12-17T05:15:41.234Z,22.77
2017-12-17T05:18:08.923Z,22.50
2017-12-17T05:20:36.605Z,24.67
2017-12-17T05:23:05.106Z,29.63
2017-12-17T05:25:32.798Z,25.33
2017-12-17T05:28:00.504Z,26.70
2017-12-17T05:30:29.050Z,25.40
2017-12-17T05:32:56.735Z,23.33
2017-12-17T05:35:25.197Z,22.70
2017-12-17T05:37:52.917Z,23.07
2017-12-17T05:40:20.640Z,24.00
2017-12-17T05:42:49.114Z,20.73
2017-12-17T05:45:16.835Z,23.60
2017-12-17T05:47:44.525Z,22.60
2017-12-17T05:50:12.229Z,22.90
2017-12-17T05:52:39.972Z,27.23
2017-12-17T05:55:08.430Z,20.53
2017-12-17T05:57:36.108Z,21.53
2017-12-17T06:00:04.619Z,24.60
2017-12-17T06:02:32.308Z,24.30
2017-12-17T06:04:59.995Z,20.53
2017-12-17T06:07:27.723Z,21.40
2017-12-17T06:09:55.440Z,22.20
2017-12-17T06:12:24.050Z,23.63
2017-12-17T06:14:51.796Z,24.23
2017-12-17T06:17:19.498Z,22.43
2017-12-17T06:19:47.200Z,20.77
2017-12-17T06:22:15.763Z,20.07
2017-12-17T06:24:43.463Z,26.83
2017-12-17T06:27:11.243Z,23.80
2017-12-17T06:29:39.007Z,25.03
2017-12-17T06:32:06.703Z,28.63
2017-12-17T06:34:34.403Z,19.93
2017-12-17T06:37:02.135Z,21.30
2017-12-17T06:39:29.877Z,21.93
2017-12-17T06:41:57.577Z,20.73
2017-12-17T06:44:25.303Z,21.17
2017-12-17T06:46:53.002Z,22.97
2017-12-17T06:49:21.438Z,23.73
2017-12-17T06:51:49.166Z,22.27
2017-12-17T06:54:16.823Z,21.23
2017-12-17T06:56:44.478Z,21.80
2017-12-17T06:59:12.423Z,18.83
2017-12-17T07:01:40.865Z,24.67
2017-12-17T07:04:08.555Z,18.40
2017-12-17T07:06:37.082Z,19.23
2017-12-17T07:09:04.780Z,20.60
2017-12-17T07:11:32.525Z,23.10
2017-12-17T07:14:00.335Z,18.57
2017-12-17T07:16:28.804Z,17.20
2017-12-17T07:18:57.283Z,18.50
2017-12-17T07:21:25.795Z,20.30
2017-12-17T07:23:53.489Z,20.50
2017-12-17T07:26:21.183Z,16.97
2017-12-17T07:28:49.712Z,19.10
2017-12-17T07:31:17.398Z,15.20
2017-12-17T07:33:45.060Z,21.57
2017-12-17T07:36:12.811Z,16.90
2017-12-17T07:38:40.523Z,19.73
2017-12-17T07:41:08.260Z,19.80
2017-12-17T07:43:36.171Z,18.70
2017-12-17T07:46:03.836Z,17.53
2017-12-17T07:48:31.496Z,19.80
2017-12-17T07:50:59.359Z,19.53
2017-12-17T07:53:27.046Z,21.20
2017-12-17T07:55:54.728Z,16.70
2017-12-17T07:58:22.512Z,17.87
2017-12-17T08:00:50.960Z,22.47
2017-12-17T08:03:18.642Z,21.20
2017-12-17T08:05:46.572Z,16.57
2017-12-17T08:08:14.288Z,16.87
2017-12-17T08:10:42.760Z,24.73
2017-12-17T08:13:11.241Z,15.27
2017-12-17T08:15:39.672Z,15.97
2017-12-17T08:18:07.345Z,19.00
2017-12-17T08:20:35.218Z,18.07
2017-12-17T08:23:02.903Z,19.37
2017-12-17T08:25:31.384Z,17.37
2017-12-17T08:27:59.869Z,19.60
2017-12-17T08:30:28.339Z,17.73
2017-12-17T08:32:56.791Z,15.67
2017-12-17T08:35:24.584Z,18.93
2017-12-17T08:37:53.030Z,18.00
2017-12-17T08:40:20.728Z,17.40
2017-12-17T08:42:49.268Z,15.40
2017-12-17T08:45:16.953Z,19.40
2017-12-17T08:47:44.636Z,19.90
2017-12-17T08:50:13.138Z,15.73
2017-12-17T08:52:40.834Z,14.00
2017-12-17T08:55:08.493Z,17.87
2017-12-17T08:57:36.287Z,17.30
2017-12-17T09:00:04.835Z,17.00
2017-12-17T09:02:32.515Z,13.50
2017-12-17T09:05:00.403Z,17.73
2017-12-17T09:07:28.932Z,17.57
2017-12-17T09:09:56.630Z,15.10
2017-12-17T09:12:26.476Z,15.67
2017-12-17T09:14:54.156Z,12.30
2017-12-17T09:17:22.640Z,14.70
2017-12-17T09:19:50.381Z,14.70
2017-12-17T09:22:18.094Z,13.50
2017-12-17T09:24:45.763Z,15.00
2017-12-17T09:27:13.578Z,14.20
2017-12-17T09:29:41.292Z,11.90
2017-12-17T09:32:09.022Z,12.57
2017-12-17T09:34:36.763Z,17.23
2017-12-17T09:37:04.458Z,14.00
2017-12-17T09:39:32.139Z,14.00
2017-12-17T09:42:00.647Z,10.83
2017-12-17T09:44:28.303Z,10.50
2017-12-17T09:46:55.971Z,11.60
2017-12-17T09:49:23.720Z,14.33
2017-12-17T09:51:51.429Z,13.33
2017-12-17T09:54:19.111Z,10.10
2017-12-17T09:56:46.847Z,12.07
2017-12-17T09:59:14.512Z,10.67
2017-12-17T10:01:42.207Z,12.17
2017-12-17T10:04:10.698Z,10.63
2017-12-17T10:06:39.157Z,10.97
2017-12-17T10:09:07.425Z,10.10
2017-12-17T10:11:35.249Z,11.43
2017-12-17T10:14:02.928Z,11.23
2017-12-17T10:16:30.627Z,15.93
2017-12-17T10:18:59.207Z,10.57
2017-12-17T10:21:27.658Z,11.53
2017-12-17T10:23:55.393Z,10.63
2017-12-17T10:26:23.137Z,14.33
2017-12-17T10:28:50.818Z,12.23
2017-12-17T10:31:18.516Z,11.37
2017-12-17T10:33:46.279Z,12.73
2017-12-17T10:36:13.982Z,14.40
2017-12-17T10:38:41.765Z,13.60
2017-12-17T10:41:09.664Z,13.83
2017-12-17T10:43:37.463Z,13.23
2017-12-17T10:46:05.911Z,11.70
2017-12-17T10:48:34.411Z,11.40
2017-12-17T10:51:02.835Z,14.90
2017-12-17T10:53:30.531Z,16.97
2017-12-17T10:55:58.276Z,16.73
2017-12-17T10:58:25.972Z,17.13
2017-12-17T11:00:54.437Z,15.10
2017-12-17T11:03:22.156Z,14.53
2017-12-17T11:05:49.804Z,16.13
2017-12-17T11:08:17.492Z,21.30
2017-12-17T11:10:45.208Z,16.30
2017-12-17T11:13:13.653Z,15.57
2017-12-17T11:15:41.343Z,20.30
2017-12-17T11:18:09.857Z,14.00
2017-12-17T11:20:37.527Z,17.20
2017-12-17T11:23:05.196Z,12.97
2017-12-17T11:25:32.923Z,10.53
2017-12-17T11:28:00.628Z,14.90
2017-12-17T11:30:28.317Z,15.20
2017-12-17T11:32:56.944Z,13.13
2017-12-17T11:35:24.652Z,20.60
2017-12-17T11:37:52.342Z,14.23
2017-12-17T11:40:20.094Z,12.83
2017-12-17T11:42:48.565Z,15.43
2017-12-17T11:45:17.031Z,15.13
2017-12-17T11:47:45.073Z,14.40
2017-12-17T11:50:12.811Z,12.50
2017-12-17T11:52:40.512Z,10.90
2017-12-17T11:55:08.245Z,10.03
2017-12-17T11:57:36.703Z,20.07
2017-12-17T12:00:04.393Z,11.00
2017-12-17T12:02:32.191Z,11.00
2017-12-17T12:04:59.875Z,11.30
2017-12-17T12:07:28.298Z,10.10
2017-12-17T12:09:56.115Z,7.40
2017-12-17T12:12:24.581Z,8.13
2017-12-17T12:14:53.053Z,9.23
2017-12-17T12:17:20.780Z,8.93
2017-12-17T12:19:48.493Z,7.93
2017-12-17T12:22:16.938Z,6.10
2017-12-17T12:24:44.684Z,7.77
2017-12-17T12:27:12.364Z,7.30
2017-12-17T12:29:40.044Z,9.57
2017-12-17T12:32:08.569Z,8.00
2017-12-17T12:34:36.251Z,6.30
2017-12-17T12:37:03.938Z,9.30
2017-12-17T12:39:31.691Z,9.57
2017-12-17T12:41:59.375Z,11.40
2017-12-17T12:44:27.819Z,8.93
2017-12-17T12:46:55.514Z,9.60
2017-12-17T12:49:23.201Z,8.37
2017-12-17T12:51:50.888Z,8.37
2017-12-17T12:54:18.651Z,7.53
2017-12-17T12:56:46.329Z,9.87
2017-12-17T12:59:13.998Z,10.00
2017-12-17T13:01:41.859Z,11.50
2017-12-17T13:04:09.627Z,7.37
2017-12-17T13:06:37.336Z,10.80
2017-12-17T13:09:05.669Z,11.90
2017-12-17T13:11:33.330Z,8.43
2017-12-17T13:14:01.006Z,7.77
2017-12-17T13:16:29.585Z,10.93
2017-12-17T13:18:58.187Z,8.90
2017-12-17T13:21:25.950Z,8.63
2017-12-17T13:23:53.679Z,11.07
2017-12-17T13:26:21.367Z,7.87
2017-12-17T13:28:49.791Z,9.70
2017-12-17T13:31:17.681Z,8.90
2017-12-17T13:33:45.415Z,12.00
2017-12-17T13:36:13.302Z,10.23
2017-12-17T13:38:41.166Z,7.70
2017-12-17T13:41:09.009Z,8.20
2017-12-17T13:43:36.734Z,9.43
2017-12-17T13:46:04.615Z,7.50
2017-12-17T13:48:33.233Z,7.27
2017-12-17T13:51:00.957Z,9.57
2017-12-17T13:53:28.718Z,10.23
2017-12-17T13:55:56.435Z,10.40
2017-12-17T13:58:24.829Z,12.07
2017-12-17T14:00:52.728Z,12.53
2017-12-17T14:03:20.538Z,10.20
2017-12-17T14:05:48.340Z,10.70
2017-12-17T14:08:16.108Z,15.70
2017-12-17T14:10:44.639Z,8.50
2017-12-17T14:13:12.406Z,9.97
2017-12-17T14:15:40.286Z,9.57
2017-12-17T14:18:08.027Z,8.57
2017-12-17T14:20:35.845Z,10.37
2017-12-17T14:23:03.611Z,10.47
2017-12-17T14:25:31.443Z,9.80
2017-12-17T14:27:59.924Z,9.33
2017-12-17T14:30:28.532Z,9.80
2017-12-17T14:32:56.264Z,13.03
2017-12-17T14:35:24.834Z,9.70
2017-12-17T14:37:52.685Z,10.30
2017-12-17T14:40:22.339Z,9.40
2017-12-17T14:42:51.027Z,14.20
2017-12-17T14:45:19.000Z,8.70
2017-12-17T14:47:47.049Z,8.80
2017-12-17T14:50:14.902Z,8.60
2017-12-17T14:52:43.653Z,9.97
2017-12-17T14:55:11.385Z,9.70
2017-12-17T14:57:39.191Z,10.73
2017-12-17T15:00:06.996Z,11.40
2017-12-17T15:02:34.723Z,9.10
2017-12-17T15:05:02.470Z,9.43
2017-12-17T15:07:30.545Z,10.27
2017-12-17T15:09:58.332Z,9.90
2017-12-17T15:12:27.379Z,8.50
2017-12-17T15:14:55.316Z,9.87
2017-12-17T15:17:23.091Z,9.27
2017-12-17T15:19:51.809Z,7.50
2017-12-17T15:22:19.701Z,10.07
2017-12-17T15:24:48.582Z,10.70
2017-12-17T15:27:17.254Z,10.30
2017-12-17T15:29:45.187Z,9.93
2017-12-17T15:32:13.105Z,15.37
2017-12-17T15:34:41.987Z,9.20
2017-12-17T15:37:10.987Z,11.70
2017-12-17T15:39:38.994Z,8.70
2017-12-17T15:42:07.115Z,11.73
2017-12-17T15:44:35.443Z,10.33
2017-12-17T15:47:04.146Z,9.63
2017-12-17T15:49:31.910Z,9.77
2017-12-17T15:52:00.217Z,11.77
2017-12-17T15:54:28.034Z,12.53
2017-12-17T15:56:55.888Z,10.40
2017-12-17T15:59:23.747Z,10.17
2017-12-17T16:01:51.558Z,8.13
2017-12-17T16:04:19.764Z,9.57
2017-12-17T16:06:47.651Z,10.47
2017-12-17T16:09:15.603Z,9.57
2017-12-17T16:11:43.483Z,8.00
2017-12-17T16:14:11.563Z,10.60
2017-12-17T16:16:39.419Z,9.70
2017-12-17T16:19:07.240Z,9.03
2017-12-17T16:21:35.136Z,10.10
2017-12-17T16:24:02.926Z,11.00
2017-12-17T16:26:31.247Z,10.30
2017-12-17T16:29:00.987Z,11.03
2017-12-17T16:31:28.724Z,16.43
2017-12-17T16:33:57.187Z,12.90
2017-12-17T16:36:25.009Z,10.07
2017-12-17T16:38:52.788Z,15.63
2017-12-17T16:41:20.453Z,9.47
2017-12-17T16:43:48.175Z,10.83
2017-12-17T16:46:15.920Z,9.60
2017-12-17T16:48:44.463Z,10.33
2017-12-17T16:51:12.350Z,7.97
2017-12-17T16:53:40.969Z,11.37
2017-12-17T16:56:08.666Z,12.30
2017-12-17T16:58:36.443Z,10.10
2017-12-17T17:01:04.140Z,11.63
2017-12-17T17:03:31.856Z,10.60
2017-12-17T17:05:59.768Z,14.13
2017-12-17T17:08:28.227Z,13.23
2017-12-17T17:10:56.671Z,24.47
2017-12-17T17:13:24.648Z,11.13
2017-12-17T17:15:52.276Z,19.10
2017-12-17T17:18:20.008Z,9.67
2017-12-17T17:20:47.827Z,10.23
2017-12-17T17:23:15.759Z,7.30
2017-12-17T17:25:43.552Z,12.27
2017-12-17T17:28:11.470Z,8.70
2017-12-17T17:30:39.302Z,10.17
2017-12-17T17:33:07.270Z,13.53
2017-12-17T17:35:36.059Z,12.40
2017-12-17T17:38:03.980Z,11.40
2017-12-17T17:43:06.020Z,10.73
2017-12-17T17:45:33.667Z,14.10
2017-12-17T17:48:02.751Z,12.67
2017-12-17T17:50:30.436Z,8.47
2017-12-17T17:52:58.120Z,9.40
2017-12-17T17:55:25.799Z,10.90
2017-12-17T17:57:53.494Z,9.40
2017-12-17T18:00:21.969Z,12.30
2017-12-17T18:02:49.640Z,10.07
2017-12-17T18:05:17.387Z,9.30
2017-12-17T18:07:45.018Z,7.63
2017-12-17T18:10:12.726Z,10.87
2017-12-17T18:12:41.183Z,9.93
2017-12-17T18:15:21.333Z,11.17
2017-12-17T18:17:58.607Z,8.90
2017-12-17T18:20:27.685Z,13.80
2017-12-17T18:22:55.622Z,11.17
2017-12-17T18:25:23.418Z,10.40
2017-12-17T18:27:51.717Z,13.33
2017-12-17T18:30:20.957Z,14.63
2017-12-17T18:32:48.896Z,9.80
2017-12-17T18:35:16.807Z,11.80
2017-12-17T18:37:44.756Z,11.83
2017-12-17T18:40:12.667Z,10.43
2017-12-17T18:42:41.282Z,15.50
2017-12-17T18:45:09.219Z,9.73
2017-12-17T18:47:37.031Z,11.40
2017-12-17T18:50:04.869Z,12.70
2017-12-17T18:52:32.810Z,10.73
2017-12-17T18:55:00.683Z,14.27
2017-12-17T18:57:28.522Z,10.20
2017-12-17T18:59:56.543Z,13.20
2017-12-17T19:02:25.152Z,14.93
2017-12-17T19:04:53.007Z,11.20
2017-12-17T19:07:21.080Z,9.60
2017-12-17T19:09:48.989Z,19.27
2017-12-17T19:12:16.839Z,11.10
2017-12-17T19:14:44.770Z,11.67
2017-12-17T19:17:12.609Z,20.10
2017-12-17T19:19:40.340Z,12.53
2017-12-17T19:22:08.062Z,13.13
2017-12-17T19:24:35.749Z,10.57
2017-12-17T19:27:03.416Z,15.90
2017-12-17T19:29:31.128Z,10.07
2017-12-17T19:31:58.894Z,9.77
2017-12-17T19:34:26.600Z,13.80
2017-12-17T19:36:54.296Z,14.57
2017-12-17T19:39:23.745Z,8.53
2017-12-17T19:41:51.398Z,10.27
2017-12-17T19:44:19.187Z,12.97
2017-12-17T19:46:47.016Z,12.10
2017-12-17T19:49:14.789Z,11.33
2017-12-17T19:51:42.549Z,14.53
2017-12-17T19:54:10.598Z,12.27
2017-12-17T19:56:38.456Z,11.13
2017-12-17T19:59:06.394Z,14.17
2017-12-17T20:01:34.227Z,12.47
2017-12-17T20:04:01.937Z,12.50
2017-12-17T20:06:30.615Z,11.20
2017-12-17T20:08:58.301Z,9.57
2017-12-17T20:11:27.149Z,12.37
2017-12-17T20:13:54.973Z,11.67
2017-12-17T20:16:22.681Z,12.90
2017-12-17T20:18:50.381Z,9.47
2017-12-17T20:21:18.228Z,11.40
2017-12-17T20:23:45.968Z,11.10
2017-12-17T20:26:13.635Z,10.53
2017-12-17T20:28:41.361Z,12.30
2017-12-17T20:31:09.146Z,15.30
2017-12-17T20:33:36.874Z,13.17
2017-12-17T20:36:04.749Z,10.70
2017-12-17T20:38:32.511Z,11.30
2017-12-17T20:41:00.139Z,11.40
2017-12-17T20:43:27.831Z,9.93
2017-12-17T20:45:55.476Z,15.07
2017-12-17T20:48:23.188Z,12.23
2017-12-17T20:50:50.987Z,13.80
2017-12-17T20:53:18.777Z,13.97
2017-12-17T20:55:46.604Z,17.43
2017-12-17T20:58:14.495Z,10.40
2017-12-17T21:00:42.361Z,16.40
2017-12-17T21:03:10.072Z,16.93
2017-12-17T21:05:38.032Z,15.40
2017-12-17T21:08:05.767Z,17.67
2017-12-17T21:10:33.545Z,16.43
2017-12-17T21:13:01.549Z,12.87
2017-12-17T21:15:29.276Z,18.17
2017-12-17T21:17:57.025Z,21.70
2017-12-17T21:20:24.877Z,13.60
2017-12-17T21:22:52.662Z,12.63
2017-12-17T21:25:20.422Z,15.70
2017-12-17T21:27:48.301Z,14.27
2017-12-17T21:30:17.280Z,13.90
2017-12-17T21:32:45.262Z,13.80
2017-12-17T21:35:14.079Z,12.37
2017-12-17T21:37:42.650Z,11.07
2017-12-17T21:40:11.260Z,14.63
2017-12-17T21:42:39.702Z,13.43
2017-12-17T21:45:08.213Z,12.67
2017-12-17T21:47:35.838Z,10.87
2017-12-17T21:50:03.617Z,10.70
2017-12-17T21:52:32.155Z,9.90
2017-12-17T21:54:59.967Z,12.40
2017-12-17T21:57:27.868Z,11.30
2017-12-17T21:59:55.540Z,10.57
2017-12-17T22:02:23.231Z,10.80
2017-12-17T22:04:52.020Z,14.80
2017-12-17T22:07:19.699Z,11.00
2017-12-17T22:09:47.344Z,13.27
2017-12-17T22:12:15.782Z,13.87
2017-12-17T22:14:43.559Z,11.23
2017-12-17T22:17:12.221Z,10.13
2017-12-17T22:19:40.044Z,10.07
2017-12-17T22:22:07.731Z,13.43
2017-12-17T22:24:35.389Z,11.83
2017-12-17T22:27:03.068Z,8.50
2017-12-17T22:29:30.971Z,8.73
2017-12-17T22:31:58.604Z,10.10
2017-12-17T22:34:26.303Z,9.60
2017-12-17T22:36:54.716Z,12.10
2017-12-17T22:39:22.369Z,8.97
2017-12-17T22:41:50.066Z,16.37
2017-12-17T22:44:17.763Z,11.50
2017-12-17T22:46:46.220Z,9.67
2017-12-17T22:49:14.019Z,9.70
2017-12-17T22:51:41.767Z,12.33
2017-12-17T22:54:09.507Z,8.73
2017-12-17T22:56:37.333Z,7.37
2017-12-17T22:59:05.270Z,11.10
2017-12-17T23:01:33.799Z,11.50
2017-12-17T23:04:01.642Z,9.13
2017-12-17T23:06:29.417Z,8.80
2017-12-17T23:08:57.220Z,9.87
2017-12-17T23:11:25.067Z,8.77
2017-12-17T23:13:52.856Z,11.43
2017-12-17T23:16:21.347Z,9.93
2017-12-17T23:18:49.918Z,10.13
2017-12-17T23:21:20.391Z,12.23
2017-12-17T23:23:48.538Z,9.93
2017-12-17T23:26:16.584Z,9.87
2017-12-17T23:28:45.158Z,8.30
2017-12-17T23:31:13.590Z,9.30
2017-12-17T23:33:41.462Z,9.87
2017-12-17T23:36:09.140Z,10.90
2017-12-17T23:38:36.783Z,9.50
2017-12-17T23:41:04.532Z,10.20
2017-12-17T23:43:32.206Z,9.67
2017-12-17T23:45:59.849Z,8.90
2017-12-17T23:48:27.601Z,8.83
2017-12-17T23:50:55.296Z,8.07
2017-12-17T23:53:23.024Z,9.87
2017-12-17T23:55:50.749Z,7.50
2017-12-17T23:58:18.392Z,9.87
